sensor_id;sensor_type;location;lat;lon;timestamp;P1;durP1;ratioP1;P2;durP2;ratioP2
4464;SDS011;2245;48.136;13.428;2024-03-08T00:00:22;29.23;;;15.90;;
4464;SDS011;2245;48.136;13.428;2024-03-08T00:02:49;30.47;;;14.50;;
4464;SDS011;2245;48.136;13.428;2024-03-08T00:05:16;32.10;;;15.27;;
4464;SDS011;2245;48.136;13.428;2024-03-08T00:07:44;36.50;;;16.77;;
4464;SDS011;2245;48.136;13.428;2024-03-08T00:10:12;31.07;;;15.50;;
4464;SDS011;2245;48.136;13.428;2024-03-08T00:12:40;29.50;;;14.80;;
4464;SDS011;2245;48.136;13.428;2024-03-08T00:15:08;29.37;;;14.50;;
4464;SDS011;2245;48.136;13.428;2024-03-08T00:17:36;29.63;;;14.10;;
4464;SDS011;2245;48.136;13.428;2024-03-08T00:20:03;31.73;;;14.70;;
4464;SDS011;2245;48.136;13.428;2024-03-08T00:22:33;35.30;;;15.73;;
4464;SDS011;2245;48.136;13.428;2024-03-08T00:25:01;35.03;;;15.03;;
4464;SDS011;2245;48.136;13.428;2024-03-08T00:27:29;34.07;;;16.73;;
4464;SDS011;2245;48.136;13.428;2024-03-08T00:29:56;41.70;;;18.83;;
4464;SDS011;2245;48.136;13.428;2024-03-08T00:32:23;35.57;;;15.93;;
4464;SDS011;2245;48.136;13.428;2024-03-08T00:34:50;37.87;;;17.60;;
4464;SDS011;2245;48.136;13.428;2024-03-08T00:37:18;43.50;;;19.77;;
4464;SDS011;2245;48.136;13.428;2024-03-08T00:39:45;40.40;;;17.57;;
4464;SDS011;2245;48.136;13.428;2024-03-08T00:42:11;41.93;;;16.47;;
4464;SDS011;2245;48.136;13.428;2024-03-08T00:44:40;35.80;;;17.67;;
4464;SDS011;2245;48.136;13.428;2024-03-08T00:47:07;41.93;;;20.53;;
4464;SDS011;2245;48.136;13.428;2024-03-08T00:49:34;39.10;;;16.67;;
4464;SDS011;2245;48.136;13.428;2024-03-08T00:52:01;49.00;;;18.63;;
4464;SDS011;2245;48.136;13.428;2024-03-08T00:54:28;52.73;;;22.30;;
4464;SDS011;2245;48.136;13.428;2024-03-08T00:56:55;52.90;;;24.20;;
4464;SDS011;2245;48.136;13.428;2024-03-08T00:59:22;42.20;;;21.80;;
4464;SDS011;2245;48.136;13.428;2024-03-08T01:01:51;47.20;;;22.90;;
4464;SDS011;2245;48.136;13.428;2024-03-08T01:04:17;62.13;;;25.90;;
4464;SDS011;2245;48.136;13.428;2024-03-08T01:06:45;54.97;;;24.20;;
4464;SDS011;2245;48.136;13.428;2024-03-08T01:09:12;48.60;;;21.57;;
4464;SDS011;2245;48.136;13.428;2024-03-08T01:11:39;48.73;;;21.40;;
4464;SDS011;2245;48.136;13.428;2024-03-08T01:14:07;57.57;;;26.50;;
4464;SDS011;2245;48.136;13.428;2024-03-08T01:16:34;50.23;;;23.63;;
4464;SDS011;2245;48.136;13.428;2024-03-08T01:19:02;53.67;;;23.80;;
4464;SDS011;2245;48.136;13.428;2024-03-08T01:21:29;47.60;;;18.60;;
4464;SDS011;2245;48.136;13.428;2024-03-08T01:23:56;51.17;;;22.67;;
4464;SDS011;2245;48.136;13.428;2024-03-08T01:26:23;62.93;;;23.33;;
4464;SDS011;2245;48.136;13.428;2024-03-08T01:28:50;54.97;;;22.13;;
4464;SDS011;2245;48.136;13.428;2024-03-08T01:31:17;54.43;;;22.57;;
4464;SDS011;2245;48.136;13.428;2024-03-08T01:33:44;61.03;;;25.80;;
4464;SDS011;2245;48.136;13.428;2024-03-08T01:36:12;53.33;;;23.00;;
4464;SDS011;2245;48.136;13.428;2024-03-08T01:38:40;59.13;;;22.20;;
4464;SDS011;2245;48.136;13.428;2024-03-08T01:41:07;65.87;;;25.30;;
4464;SDS011;2245;48.136;13.428;2024-03-08T01:43:35;56.63;;;26.10;;
4464;SDS011;2245;48.136;13.428;2024-03-08T01:46:02;69.73;;;28.07;;
4464;SDS011;2245;48.136;13.428;2024-03-08T01:48:29;53.37;;;23.30;;
4464;SDS011;2245;48.136;13.428;2024-03-08T01:50:56;56.70;;;26.37;;
4464;SDS011;2245;48.136;13.428;2024-03-08T01:53:25;65.13;;;25.50;;
4464;SDS011;2245;48.136;13.428;2024-03-08T01:55:54;67.30;;;25.73;;
4464;SDS011;2245;48.136;13.428;2024-03-08T01:58:22;62.57;;;23.50;;
4464;SDS011;2245;48.136;13.428;2024-03-08T02:00:50;53.20;;;21.63;;
4464;SDS011;2245;48.136;13.428;2024-03-08T02:03:17;63.07;;;25.60;;
4464;SDS011;2245;48.136;13.428;2024-03-08T02:05:44;69.50;;;26.53;;
4464;SDS011;2245;48.136;13.428;2024-03-08T02:08:11;73.17;;;28.50;;
4464;SDS011;2245;48.136;13.428;2024-03-08T02:10:41;71.57;;;27.20;;
4464;SDS011;2245;48.136;13.428;2024-03-08T02:13:08;61.50;;;25.17;;
4464;SDS011;2245;48.136;13.428;2024-03-08T02:18:26;54.00;;;20.87;;
4464;SDS011;2245;48.136;13.428;2024-03-08T02:20:55;51.40;;;21.93;;
4464;SDS011;2245;48.136;13.428;2024-03-08T02:23:23;61.23;;;25.20;;
4464;SDS011;2245;48.136;13.428;2024-03-08T02:25:51;52.73;;;22.73;;
4464;SDS011;2245;48.136;13.428;2024-03-08T02:28:18;53.37;;;22.77;;
4464;SDS011;2245;48.136;13.428;2024-03-08T02:30:45;58.43;;;24.17;;
4464;SDS011;2245;48.136;13.428;2024-03-08T02:33:13;60.17;;;21.40;;
4464;SDS011;2245;48.136;13.428;2024-03-08T02:35:42;59.90;;;23.50;;
4464;SDS011;2245;48.136;13.428;2024-03-08T02:38:12;60.53;;;24.47;;
4464;SDS011;2245;48.136;13.428;2024-03-08T02:40:41;63.40;;;24.40;;
4464;SDS011;2245;48.136;13.428;2024-03-08T02:43:08;52.93;;;21.33;;
4464;SDS011;2245;48.136;13.428;2024-03-08T02:45:35;48.80;;;23.17;;
4464;SDS011;2245;48.136;13.428;2024-03-08T02:48:02;58.27;;;24.63;;
4464;SDS011;2245;48.136;13.428;2024-03-08T02:50:31;57.57;;;23.37;;
4464;SDS011;2245;48.136;13.428;2024-03-08T02:52:58;60.17;;;21.80;;
4464;SDS011;2245;48.136;13.428;2024-03-08T02:55:27;54.03;;;23.10;;
4464;SDS011;2245;48.136;13.428;2024-03-08T02:57:54;55.53;;;23.47;;
4464;SDS011;2245;48.136;13.428;2024-03-08T03:00:21;56.83;;;22.87;;
4464;SDS011;2245;48.136;13.428;2024-03-08T03:02:49;52.27;;;21.23;;
4464;SDS011;2245;48.136;13.428;2024-03-08T03:05:19;52.93;;;21.83;;
4464;SDS011;2245;48.136;13.428;2024-03-08T03:07:45;49.70;;;24.50;;
4464;SDS011;2245;48.136;13.428;2024-03-08T03:10:13;59.10;;;24.00;;
4464;SDS011;2245;48.136;13.428;2024-03-08T03:12:43;52.40;;;22.70;;
4464;SDS011;2245;48.136;13.428;2024-03-08T03:15:11;59.27;;;23.97;;
4464;SDS011;2245;48.136;13.428;2024-03-08T03:17:38;56.67;;;23.07;;
4464;SDS011;2245;48.136;13.428;2024-03-08T03:20:06;55.47;;;23.00;;
4464;SDS011;2245;48.136;13.428;2024-03-08T03:22:38;57.23;;;25.07;;
4464;SDS011;2245;48.136;13.428;2024-03-08T03:25:06;50.57;;;21.33;;
4464;SDS011;2245;48.136;13.428;2024-03-08T03:27:34;59.03;;;23.93;;
4464;SDS011;2245;48.136;13.428;2024-03-08T03:30:03;61.20;;;25.60;;
4464;SDS011;2245;48.136;13.428;2024-03-08T03:33:08;54.10;;;21.80;;
4464;SDS011;2245;48.136;13.428;2024-03-08T03:35:37;65.23;;;24.87;;
4464;SDS011;2245;48.136;13.428;2024-03-08T03:38:05;66.80;;;25.20;;
4464;SDS011;2245;48.136;13.428;2024-03-08T03:40:32;42.67;;;19.67;;
4464;SDS011;2245;48.136;13.428;2024-03-08T03:43:00;67.53;;;28.00;;
4464;SDS011;2245;48.136;13.428;2024-03-08T03:45:27;95.97;;;28.03;;
4464;SDS011;2245;48.136;13.428;2024-03-08T03:47:54;71.20;;;26.80;;
4464;SDS011;2245;48.136;13.428;2024-03-08T03:50:23;61.67;;;24.13;;
4464;SDS011;2245;48.136;13.428;2024-03-08T03:52:50;75.10;;;28.50;;
4464;SDS011;2245;48.136;13.428;2024-03-08T03:55:17;66.90;;;28.40;;
4464;SDS011;2245;48.136;13.428;2024-03-08T03:57:44;62.37;;;25.30;;
4464;SDS011;2245;48.136;13.428;2024-03-08T04:00:12;67.93;;;26.77;;
4464;SDS011;2245;48.136;13.428;2024-03-08T04:02:39;81.37;;;29.33;;
4464;SDS011;2245;48.136;13.428;2024-03-08T04:05:07;73.40;;;28.30;;
4464;SDS011;2245;48.136;13.428;2024-03-08T04:07:37;64.37;;;27.57;;
4464;SDS011;2245;48.136;13.428;2024-03-08T04:10:05;66.57;;;28.67;;
4464;SDS011;2245;48.136;13.428;2024-03-08T04:12:33;67.57;;;26.83;;
4464;SDS011;2245;48.136;13.428;2024-03-08T04:15:00;41.77;;;18.97;;
4464;SDS011;2245;48.136;13.428;2024-03-08T04:17:27;68.03;;;27.83;;
4464;SDS011;2245;48.136;13.428;2024-03-08T04:19:54;59.63;;;23.47;;
4464;SDS011;2245;48.136;13.428;2024-03-08T04:22:22;55.97;;;22.90;;
4464;SDS011;2245;48.136;13.428;2024-03-08T04:24:50;69.90;;;28.80;;
4464;SDS011;2245;48.136;13.428;2024-03-08T04:27:17;82.43;;;28.70;;
4464;SDS011;2245;48.136;13.428;2024-03-08T04:29:44;65.80;;;22.80;;
4464;SDS011;2245;48.136;13.428;2024-03-08T04:32:11;73.20;;;28.83;;
4464;SDS011;2245;48.136;13.428;2024-03-08T04:34:38;77.13;;;29.10;;
4464;SDS011;2245;48.136;13.428;2024-03-08T04:37:05;70.73;;;29.17;;
4464;SDS011;2245;48.136;13.428;2024-03-08T04:39:36;88.10;;;31.13;;
4464;SDS011;2245;48.136;13.428;2024-03-08T04:42:05;59.60;;;24.60;;
4464;SDS011;2245;48.136;13.428;2024-03-08T04:44:35;78.80;;;29.63;;
4464;SDS011;2245;48.136;13.428;2024-03-08T04:47:02;81.83;;;31.27;;
4464;SDS011;2245;48.136;13.428;2024-03-08T04:49:29;72.10;;;27.43;;
4464;SDS011;2245;48.136;13.428;2024-03-08T04:51:56;77.70;;;30.17;;
4464;SDS011;2245;48.136;13.428;2024-03-08T04:54:23;73.20;;;30.97;;
4464;SDS011;2245;48.136;13.428;2024-03-08T04:56:50;112.57;;;36.63;;
4464;SDS011;2245;48.136;13.428;2024-03-08T04:59:18;77.80;;;31.33;;
4464;SDS011;2245;48.136;13.428;2024-03-08T05:01:45;78.00;;;29.60;;
4464;SDS011;2245;48.136;13.428;2024-03-08T05:04:12;82.47;;;30.13;;
4464;SDS011;2245;48.136;13.428;2024-03-08T05:06:40;75.47;;;30.20;;
4464;SDS011;2245;48.136;13.428;2024-03-08T05:09:07;92.50;;;31.83;;
4464;SDS011;2245;48.136;13.428;2024-03-08T05:11:38;88.60;;;33.90;;
4464;SDS011;2245;48.136;13.428;2024-03-08T05:14:05;73.10;;;29.13;;
4464;SDS011;2245;48.136;13.428;2024-03-08T05:16:34;71.40;;;28.17;;
4464;SDS011;2245;48.136;13.428;2024-03-08T05:19:01;75.07;;;27.40;;
4464;SDS011;2245;48.136;13.428;2024-03-08T05:21:28;76.70;;;30.07;;
4464;SDS011;2245;48.136;13.428;2024-03-08T05:23:55;79.47;;;30.63;;
4464;SDS011;2245;48.136;13.428;2024-03-08T05:26:22;73.17;;;30.10;;
4464;SDS011;2245;48.136;13.428;2024-03-08T05:28:49;88.03;;;33.10;;
4464;SDS011;2245;48.136;13.428;2024-03-08T05:31:18;77.37;;;30.37;;
4464;SDS011;2245;48.136;13.428;2024-03-08T05:33:49;85.63;;;31.37;;
4464;SDS011;2245;48.136;13.428;2024-03-08T05:36:16;78.23;;;31.40;;
4464;SDS011;2245;48.136;13.428;2024-03-08T05:38:43;89.67;;;34.90;;
4464;SDS011;2245;48.136;13.428;2024-03-08T05:41:10;73.53;;;28.53;;
4464;SDS011;2245;48.136;13.428;2024-03-08T05:43:38;94.80;;;36.70;;
4464;SDS011;2245;48.136;13.428;2024-03-08T05:46:06;76.17;;;27.37;;
4464;SDS011;2245;48.136;13.428;2024-03-08T05:48:33;71.00;;;28.50;;
4464;SDS011;2245;48.136;13.428;2024-03-08T05:51:01;88.90;;;31.13;;
4464;SDS011;2245;48.136;13.428;2024-03-08T05:53:29;74.17;;;25.90;;
4464;SDS011;2245;48.136;13.428;2024-03-08T05:55:57;94.17;;;34.33;;
4464;SDS011;2245;48.136;13.428;2024-03-08T05:58:26;68.83;;;24.23;;
4464;SDS011;2245;48.136;13.428;2024-03-08T06:00:55;62.77;;;25.97;;
4464;SDS011;2245;48.136;13.428;2024-03-08T06:03:22;74.07;;;26.20;;
4464;SDS011;2245;48.136;13.428;2024-03-08T06:05:50;73.63;;;29.30;;
4464;SDS011;2245;48.136;13.428;2024-03-08T06:08:18;52.77;;;23.30;;
4464;SDS011;2245;48.136;13.428;2024-03-08T06:10:45;82.67;;;31.60;;
4464;SDS011;2245;48.136;13.428;2024-03-08T06:13:16;84.33;;;31.70;;
4464;SDS011;2245;48.136;13.428;2024-03-08T06:15:42;78.77;;;32.80;;
4464;SDS011;2245;48.136;13.428;2024-03-08T06:18:10;84.23;;;35.63;;
4464;SDS011;2245;48.136;13.428;2024-03-08T06:20:36;65.07;;;25.07;;
4464;SDS011;2245;48.136;13.428;2024-03-08T06:23:03;72.40;;;29.50;;
4464;SDS011;2245;48.136;13.428;2024-03-08T06:25:32;54.37;;;25.67;;
4464;SDS011;2245;48.136;13.428;2024-03-08T06:28:00;77.07;;;31.33;;
4464;SDS011;2245;48.136;13.428;2024-03-08T06:30:27;74.17;;;22.83;;
4464;SDS011;2245;48.136;13.428;2024-03-08T06:32:54;74.73;;;28.63;;
4464;SDS011;2245;48.136;13.428;2024-03-08T06:35:20;84.47;;;31.37;;
4464;SDS011;2245;48.136;13.428;2024-03-08T06:37:47;67.80;;;25.60;;
4464;SDS011;2245;48.136;13.428;2024-03-08T06:40:14;78.23;;;27.97;;
4464;SDS011;2245;48.136;13.428;2024-03-08T06:42:43;67.10;;;27.73;;
4464;SDS011;2245;48.136;13.428;2024-03-08T06:45:10;74.40;;;28.13;;
4464;SDS011;2245;48.136;13.428;2024-03-08T06:47:37;67.50;;;28.73;;
4464;SDS011;2245;48.136;13.428;2024-03-08T06:50:07;69.23;;;25.30;;
4464;SDS011;2245;48.136;13.428;2024-03-08T06:52:34;75.57;;;24.90;;
4464;SDS011;2245;48.136;13.428;2024-03-08T06:55:01;63.67;;;24.97;;
4464;SDS011;2245;48.136;13.428;2024-03-08T06:57:30;72.00;;;28.70;;
4464;SDS011;2245;48.136;13.428;2024-03-08T06:59:58;37.10;;;17.07;;
4464;SDS011;2245;48.136;13.428;2024-03-08T07:02:26;56.47;;;24.37;;
4464;SDS011;2245;48.136;13.428;2024-03-08T07:04:53;74.80;;;29.13;;
4464;SDS011;2245;48.136;13.428;2024-03-08T07:07:21;62.20;;;25.27;;
4464;SDS011;2245;48.136;13.428;2024-03-08T07:09:48;59.47;;;24.07;;
4464;SDS011;2245;48.136;13.428;2024-03-08T07:12:15;48.03;;;22.00;;
4464;SDS011;2245;48.136;13.428;2024-03-08T07:14:43;58.70;;;26.83;;
4464;SDS011;2245;48.136;13.428;2024-03-08T07:17:12;74.23;;;28.10;;
4464;SDS011;2245;48.136;13.428;2024-03-08T07:19:39;63.40;;;24.30;;
4464;SDS011;2245;48.136;13.428;2024-03-08T07:22:06;69.93;;;25.27;;
4464;SDS011;2245;48.136;13.428;2024-03-08T07:24:34;72.03;;;32.17;;
4464;SDS011;2245;48.136;13.428;2024-03-08T07:27:21;61.90;;;26.30;;
4464;SDS011;2245;48.136;13.428;2024-03-08T07:29:48;79.07;;;27.83;;
4464;SDS011;2245;48.136;13.428;2024-03-08T07:32:16;49.50;;;22.40;;
4464;SDS011;2245;48.136;13.428;2024-03-08T07:34:46;60.17;;;25.07;;
4464;SDS011;2245;48.136;13.428;2024-03-08T07:37:15;50.70;;;22.70;;
4464;SDS011;2245;48.136;13.428;2024-03-08T07:39:42;64.80;;;24.90;;
4464;SDS011;2245;48.136;13.428;2024-03-08T07:42:09;55.23;;;22.30;;
4464;SDS011;2245;48.136;13.428;2024-03-08T07:44:38;55.73;;;23.53;;
4464;SDS011;2245;48.136;13.428;2024-03-08T07:47:05;65.40;;;25.33;;
4464;SDS011;2245;48.136;13.428;2024-03-08T07:49:35;55.73;;;23.57;;
4464;SDS011;2245;48.136;13.428;2024-03-08T07:52:03;51.83;;;23.07;;
4464;SDS011;2245;48.136;13.428;2024-03-08T07:54:32;58.53;;;25.57;;
4464;SDS011;2245;48.136;13.428;2024-03-08T07:56:59;56.20;;;23.90;;
4464;SDS011;2245;48.136;13.428;2024-03-08T07:59:28;49.90;;;22.80;;
4464;SDS011;2245;48.136;13.428;2024-03-08T08:01:55;34.57;;;15.53;;
4464;SDS011;2245;48.136;13.428;2024-03-08T08:04:22;49.50;;;20.90;;
4464;SDS011;2245;48.136;13.428;2024-03-08T08:06:51;48.90;;;21.70;;
4464;SDS011;2245;48.136;13.428;2024-03-08T08:09:20;62.93;;;24.43;;
4464;SDS011;2245;48.136;13.428;2024-03-08T08:11:53;45.77;;;20.97;;
4464;SDS011;2245;48.136;13.428;2024-03-08T08:14:21;53.93;;;24.53;;
4464;SDS011;2245;48.136;13.428;2024-03-08T08:16:47;39.87;;;18.37;;
4464;SDS011;2245;48.136;13.428;2024-03-08T08:19:17;59.77;;;23.70;;
4464;SDS011;2245;48.136;13.428;2024-03-08T08:21:44;46.20;;;21.27;;
4464;SDS011;2245;48.136;13.428;2024-03-08T08:24:13;47.83;;;19.80;;
4464;SDS011;2245;48.136;13.428;2024-03-08T08:26:40;46.93;;;19.87;;
4464;SDS011;2245;48.136;13.428;2024-03-08T08:29:09;51.47;;;21.90;;
4464;SDS011;2245;48.136;13.428;2024-03-08T08:31:36;47.53;;;22.50;;
4464;SDS011;2245;48.136;13.428;2024-03-08T08:34:03;54.93;;;22.97;;
4464;SDS011;2245;48.136;13.428;2024-03-08T08:36:31;45.03;;;21.17;;
4464;SDS011;2245;48.136;13.428;2024-03-08T08:38:59;53.23;;;23.10;;
4464;SDS011;2245;48.136;13.428;2024-03-08T08:41:29;54.60;;;22.63;;
4464;SDS011;2245;48.136;13.428;2024-03-08T08:43:57;50.27;;;19.17;;
4464;SDS011;2245;48.136;13.428;2024-03-08T08:46:24;48.10;;;19.83;;
4464;SDS011;2245;48.136;13.428;2024-03-08T08:48:51;50.50;;;23.83;;
4464;SDS011;2245;48.136;13.428;2024-03-08T08:51:18;49.17;;;23.20;;
4464;SDS011;2245;48.136;13.428;2024-03-08T08:53:45;48.70;;;23.23;;
4464;SDS011;2245;48.136;13.428;2024-03-08T08:56:12;51.73;;;24.43;;
4464;SDS011;2245;48.136;13.428;2024-03-08T08:58:42;54.53;;;25.70;;
4464;SDS011;2245;48.136;13.428;2024-03-08T09:01:09;46.73;;;23.57;;
4464;SDS011;2245;48.136;13.428;2024-03-08T09:03:36;44.53;;;22.40;;
4464;SDS011;2245;48.136;13.428;2024-03-08T09:06:06;49.53;;;23.77;;
4464;SDS011;2245;48.136;13.428;2024-03-08T09:08:35;50.57;;;22.97;;
4464;SDS011;2245;48.136;13.428;2024-03-08T09:11:01;41.20;;;17.97;;
4464;SDS011;2245;48.136;13.428;2024-03-08T09:13:29;56.57;;;24.97;;
4464;SDS011;2245;48.136;13.428;2024-03-08T09:15:57;45.33;;;20.60;;
4464;SDS011;2245;48.136;13.428;2024-03-08T09:18:24;47.47;;;21.93;;
4464;SDS011;2245;48.136;13.428;2024-03-08T09:20:52;45.67;;;21.30;;
4464;SDS011;2245;48.136;13.428;2024-03-08T09:23:19;57.50;;;21.17;;
4464;SDS011;2245;48.136;13.428;2024-03-08T09:25:46;45.17;;;22.87;;
4464;SDS011;2245;48.136;13.428;2024-03-08T09:28:14;55.60;;;22.97;;
4464;SDS011;2245;48.136;13.428;2024-03-08T09:30:41;46.57;;;20.20;;
4464;SDS011;2245;48.136;13.428;2024-03-08T09:33:09;43.23;;;20.33;;
4464;SDS011;2245;48.136;13.428;2024-03-08T09:35:36;45.10;;;21.77;;
4464;SDS011;2245;48.136;13.428;2024-03-08T09:38:03;45.73;;;20.27;;
4464;SDS011;2245;48.136;13.428;2024-03-08T09:40:30;51.60;;;23.33;;
4464;SDS011;2245;48.136;13.428;2024-03-08T09:42:57;42.53;;;18.57;;
4464;SDS011;2245;48.136;13.428;2024-03-08T09:45:24;55.27;;;22.73;;
4464;SDS011;2245;48.136;13.428;2024-03-08T09:47:51;68.80;;;25.93;;
4464;SDS011;2245;48.136;13.428;2024-03-08T09:50:21;60.43;;;25.80;;
4464;SDS011;2245;48.136;13.428;2024-03-08T09:52:48;50.63;;;23.47;;
4464;SDS011;2245;48.136;13.428;2024-03-08T09:55:15;53.97;;;23.20;;
4464;SDS011;2245;48.136;13.428;2024-03-08T09:57:47;45.97;;;22.77;;
4464;SDS011;2245;48.136;13.428;2024-03-08T10:00:35;52.07;;;24.50;;
4464;SDS011;2245;48.136;13.428;2024-03-08T10:03:02;43.27;;;20.10;;
4464;SDS011;2245;48.136;13.428;2024-03-08T10:05:32;45.33;;;20.77;;
4464;SDS011;2245;48.136;13.428;2024-03-08T10:07:59;50.03;;;24.07;;
4464;SDS011;2245;48.136;13.428;2024-03-08T10:10:26;45.43;;;21.67;;
4464;SDS011;2245;48.136;13.428;2024-03-08T10:12:53;50.80;;;23.00;;
4464;SDS011;2245;48.136;13.428;2024-03-08T10:15:20;46.80;;;21.67;;
4464;SDS011;2245;48.136;13.428;2024-03-08T10:17:47;41.10;;;21.23;;
4464;SDS011;2245;48.136;13.428;2024-03-08T10:20:14;44.43;;;19.90;;
4464;SDS011;2245;48.136;13.428;2024-03-08T10:22:43;41.73;;;20.30;;
4464;SDS011;2245;48.136;13.428;2024-03-08T10:25:10;43.60;;;20.77;;
4464;SDS011;2245;48.136;13.428;2024-03-08T10:27:38;52.67;;;20.00;;
4464;SDS011;2245;48.136;13.428;2024-03-08T10:30:06;36.57;;;17.97;;
4464;SDS011;2245;48.136;13.428;2024-03-08T10:32:35;36.03;;;19.93;;
4464;SDS011;2245;48.136;13.428;2024-03-08T10:35:02;42.37;;;20.23;;
4464;SDS011;2245;48.136;13.428;2024-03-08T10:37:29;38.40;;;20.20;;
4464;SDS011;2245;48.136;13.428;2024-03-08T10:40:01;45.00;;;22.40;;
4464;SDS011;2245;48.136;13.428;2024-03-08T10:42:35;51.57;;;21.60;;
4464;SDS011;2245;48.136;13.428;2024-03-08T10:45:09;45.80;;;22.50;;
4464;SDS011;2245;48.136;13.428;2024-03-08T10:47:40;46.23;;;21.97;;
4464;SDS011;2245;48.136;13.428;2024-03-08T10:50:10;46.97;;;21.67;;
4464;SDS011;2245;48.136;13.428;2024-03-08T10:52:38;40.10;;;19.13;;
4464;SDS011;2245;48.136;13.428;2024-03-08T10:55:07;38.93;;;19.30;;
4464;SDS011;2245;48.136;13.428;2024-03-08T10:57:38;38.73;;;19.27;;
4464;SDS011;2245;48.136;13.428;2024-03-08T11:00:06;37.83;;;18.60;;
4464;SDS011;2245;48.136;13.428;2024-03-08T11:02:35;34.97;;;17.70;;
4464;SDS011;2245;48.136;13.428;2024-03-08T11:05:03;44.37;;;22.17;;
4464;SDS011;2245;48.136;13.428;2024-03-08T11:07:33;43.53;;;20.47;;
4464;SDS011;2245;48.136;13.428;2024-03-08T11:10:02;36.40;;;17.83;;
4464;SDS011;2245;48.136;13.428;2024-03-08T11:12:35;56.33;;;22.10;;
4464;SDS011;2245;48.136;13.428;2024-03-08T11:15:09;38.57;;;21.20;;
4464;SDS011;2245;48.136;13.428;2024-03-08T11:17:40;41.60;;;20.80;;
4464;SDS011;2245;48.136;13.428;2024-03-08T11:20:12;37.23;;;18.33;;
4464;SDS011;2245;48.136;13.428;2024-03-08T11:22:47;36.90;;;18.03;;
4464;SDS011;2245;48.136;13.428;2024-03-08T11:28:15;39.43;;;18.20;;
4464;SDS011;2245;48.136;13.428;2024-03-08T11:30:44;37.93;;;18.23;;
4464;SDS011;2245;48.136;13.428;2024-03-08T11:33:12;32.97;;;17.30;;
4464;SDS011;2245;48.136;13.428;2024-03-08T11:35:39;35.63;;;17.23;;
4464;SDS011;2245;48.136;13.428;2024-03-08T11:38:07;34.77;;;15.47;;
4464;SDS011;2245;48.136;13.428;2024-03-08T11:40:34;31.60;;;14.73;;
4464;SDS011;2245;48.136;13.428;2024-03-08T11:43:03;36.73;;;17.87;;
4464;SDS011;2245;48.136;13.428;2024-03-08T11:45:34;31.00;;;15.20;;
4464;SDS011;2245;48.136;13.428;2024-03-08T11:48:02;30.83;;;15.67;;
4464;SDS011;2245;48.136;13.428;2024-03-08T11:50:30;26.83;;;15.40;;
4464;SDS011;2245;48.136;13.428;2024-03-08T11:53:01;28.20;;;15.80;;
4464;SDS011;2245;48.136;13.428;2024-03-08T11:55:29;29.27;;;13.97;;
4464;SDS011;2245;48.136;13.428;2024-03-08T11:58:00;30.43;;;16.20;;
4464;SDS011;2245;48.136;13.428;2024-03-08T12:00:28;32.63;;;15.30;;
4464;SDS011;2245;48.136;13.428;2024-03-08T12:03:08;29.10;;;15.77;;
4464;SDS011;2245;48.136;13.428;2024-03-08T12:05:36;31.43;;;14.30;;
4464;SDS011;2245;48.136;13.428;2024-03-08T12:08:03;29.33;;;14.03;;
4464;SDS011;2245;48.136;13.428;2024-03-08T12:10:32;27.80;;;13.93;;
4464;SDS011;2245;48.136;13.428;2024-03-08T12:13:00;29.23;;;14.13;;
4464;SDS011;2245;48.136;13.428;2024-03-08T12:15:28;35.73;;;15.40;;
4464;SDS011;2245;48.136;13.428;2024-03-08T12:17:58;28.93;;;14.60;;
4464;SDS011;2245;48.136;13.428;2024-03-08T12:20:27;28.13;;;12.87;;
4464;SDS011;2245;48.136;13.428;2024-03-08T12:22:56;21.80;;;13.00;;
4464;SDS011;2245;48.136;13.428;2024-03-08T12:25:25;28.50;;;14.00;;
4464;SDS011;2245;48.136;13.428;2024-03-08T12:27:54;34.30;;;16.30;;
4464;SDS011;2245;48.136;13.428;2024-03-08T12:30:22;27.33;;;14.03;;
4464;SDS011;2245;48.136;13.428;2024-03-08T12:32:52;18.73;;;11.23;;
4464;SDS011;2245;48.136;13.428;2024-03-08T12:35:22;28.20;;;13.93;;
4464;SDS011;2245;48.136;13.428;2024-03-08T12:37:51;29.07;;;14.30;;
4464;SDS011;2245;48.136;13.428;2024-03-08T12:40:25;25.50;;;13.37;;
4464;SDS011;2245;48.136;13.428;2024-03-08T12:42:53;24.50;;;14.23;;
4464;SDS011;2245;48.136;13.428;2024-03-08T12:45:21;23.97;;;12.23;;
4464;SDS011;2245;48.136;13.428;2024-03-08T12:47:49;24.97;;;13.50;;
4464;SDS011;2245;48.136;13.428;2024-03-08T12:50:16;27.80;;;13.17;;
4464;SDS011;2245;48.136;13.428;2024-03-08T12:52:43;26.37;;;11.33;;
4464;SDS011;2245;48.136;13.428;2024-03-08T12:55:12;24.60;;;13.10;;
4464;SDS011;2245;48.136;13.428;2024-03-08T12:57:39;22.17;;;12.93;;
4464;SDS011;2245;48.136;13.428;2024-03-08T13:00:06;25.03;;;12.00;;
4464;SDS011;2245;48.136;13.428;2024-03-08T13:02:38;26.47;;;13.67;;
4464;SDS011;2245;48.136;13.428;2024-03-08T13:05:07;28.33;;;13.47;;
4464;SDS011;2245;48.136;13.428;2024-03-08T13:07:35;23.83;;;13.07;;
4464;SDS011;2245;48.136;13.428;2024-03-08T13:10:03;22.47;;;12.37;;
4464;SDS011;2245;48.136;13.428;2024-03-08T13:12:33;25.20;;;13.57;;
4464;SDS011;2245;48.136;13.428;2024-03-08T13:15:03;21.13;;;10.60;;
4464;SDS011;2245;48.136;13.428;2024-03-08T13:17:31;23.60;;;12.13;;
4464;SDS011;2245;48.136;13.428;2024-03-08T13:19:58;30.27;;;14.33;;
4464;SDS011;2245;48.136;13.428;2024-03-08T13:22:25;32.87;;;19.83;;
4464;SDS011;2245;48.136;13.428;2024-03-08T13:24:53;29.03;;;14.63;;
4464;SDS011;2245;48.136;13.428;2024-03-08T13:27:20;27.20;;;12.43;;
4464;SDS011;2245;48.136;13.428;2024-03-08T13:29:51;27.90;;;14.07;;
4464;SDS011;2245;48.136;13.428;2024-03-08T13:32:18;32.97;;;16.40;;
4464;SDS011;2245;48.136;13.428;2024-03-08T13:34:47;21.97;;;11.90;;
4464;SDS011;2245;48.136;13.428;2024-03-08T13:37:16;25.63;;;13.90;;
4464;SDS011;2245;48.136;13.428;2024-03-08T13:39:43;32.67;;;15.30;;
4464;SDS011;2245;48.136;13.428;2024-03-08T13:42:10;31.40;;;15.63;;
4464;SDS011;2245;48.136;13.428;2024-03-08T13:44:43;20.07;;;12.60;;
4464;SDS011;2245;48.136;13.428;2024-03-08T13:47:12;29.07;;;15.23;;
4464;SDS011;2245;48.136;13.428;2024-03-08T13:49:39;30.50;;;16.77;;
4464;SDS011;2245;48.136;13.428;2024-03-08T13:52:08;31.30;;;16.83;;
4464;SDS011;2245;48.136;13.428;2024-03-08T13:54:35;34.90;;;17.20;;
4464;SDS011;2245;48.136;13.428;2024-03-08T13:57:03;39.30;;;15.67;;
4464;SDS011;2245;48.136;13.428;2024-03-08T13:59:32;32.00;;;16.70;;
4464;SDS011;2245;48.136;13.428;2024-03-08T14:02:00;33.90;;;17.93;;
4464;SDS011;2245;48.136;13.428;2024-03-08T14:04:29;34.37;;;17.90;;
4464;SDS011;2245;48.136;13.428;2024-03-08T14:06:55;37.50;;;18.37;;
4464;SDS011;2245;48.136;13.428;2024-03-08T14:09:28;36.10;;;15.63;;
4464;SDS011;2245;48.136;13.428;2024-03-08T14:11:56;30.93;;;16.40;;
4464;SDS011;2245;48.136;13.428;2024-03-08T14:14:23;30.77;;;14.47;;
4464;SDS011;2245;48.136;13.428;2024-03-08T14:16:50;32.20;;;17.07;;
4464;SDS011;2245;48.136;13.428;2024-03-08T14:19:20;28.90;;;15.40;;
4464;SDS011;2245;48.136;13.428;2024-03-08T14:21:49;29.93;;;16.70;;
4464;SDS011;2245;48.136;13.428;2024-03-08T14:24:18;29.83;;;17.37;;
4464;SDS011;2245;48.136;13.428;2024-03-08T14:26:45;27.13;;;13.73;;
4464;SDS011;2245;48.136;13.428;2024-03-08T14:29:13;36.53;;;17.70;;
4464;SDS011;2245;48.136;13.428;2024-03-08T14:31:41;29.77;;;16.70;;
4464;SDS011;2245;48.136;13.428;2024-03-08T14:34:08;30.90;;;16.00;;
4464;SDS011;2245;48.136;13.428;2024-03-08T14:36:35;25.50;;;13.30;;
4464;SDS011;2245;48.136;13.428;2024-03-08T14:39:04;34.77;;;16.20;;
4464;SDS011;2245;48.136;13.428;2024-03-08T14:41:32;24.57;;;13.67;;
4464;SDS011;2245;48.136;13.428;2024-03-08T14:43:59;35.17;;;17.37;;